sensor_id;sensor_type;location;lat;lon;timestamp;temperature;humidity
19340;HTU21D;9804;52.350;6.684;2023-07-31T00:01:17;18.48;118.99
19340;HTU21D;9804;52.350;6.684;2023-07-31T00:03:42;18.48;118.99
19340;HTU21D;9804;52.350;6.684;2023-07-31T00:06:07;18.49;118.99
19340;HTU21D;9804;52.350;6.684;2023-07-31T00:08:33;18.62;118.99
19340;HTU21D;9804;52.350;6.684;2023-07-31T00:10:58;18.51;118.99
19340;HTU21D;9804;52.350;6.684;2023-07-31T00:13:24;18.46;118.99
19340;HTU21D;9804;52.350;6.684;2023-07-31T00:15:49;18.25;118.99
19340;HTU21D;9804;52.350;6.684;2023-07-31T00:18:15;18.36;118.99
19340;HTU21D;9804;52.350;6.684;2023-07-31T00:20:40;18.40;118.99
19340;HTU21D;9804;52.350;6.684;2023-07-31T00:23:06;18.34;118.99
19340;HTU21D;9804;52.350;6.684;2023-07-31T00:25:31;18.25;118.99
19340;HTU21D;9804;52.350;6.684;2023-07-31T00:27:57;18.23;118.99
19340;HTU21D;9804;52.350;6.684;2023-07-31T00:30:22;18.29;118.99
19340;HTU21D;9804;52.350;6.684;2023-07-31T00:32:47;18.37;118.99
19340;HTU21D;9804;52.350;6.684;2023-07-31T00:35:13;18.22;118.99
19340;HTU21D;9804;52.350;6.684;2023-07-31T00:37:38;18.36;118.99
19340;HTU21D;9804;52.350;6.684;2023-07-31T00:40:04;18.24;118.99
19340;HTU21D;9804;52.350;6.684;2023-07-31T00:42:29;18.18;118.99
19340;HTU21D;9804;52.350;6.684;2023-07-31T00:44:55;18.49;118.99
19340;HTU21D;9804;52.350;6.684;2023-07-31T00:47:20;18.32;118.99
19340;HTU21D;9804;52.350;6.684;2023-07-31T00:49:46;18.33;118.99
19340;HTU21D;9804;52.350;6.684;2023-07-31T00:52:11;18.20;118.99
19340;HTU21D;9804;52.350;6.684;2023-07-31T00:54:37;18.26;118.99
19340;HTU21D;9804;52.350;6.684;2023-07-31T00:57:03;18.43;118.99
19340;HTU21D;9804;52.350;6.684;2023-07-31T00:59:28;18.35;118.99
19340;HTU21D;9804;52.350;6.684;2023-07-31T01:01:54;18.32;118.99
19340;HTU21D;9804;52.350;6.684;2023-07-31T01:04:20;18.35;118.99
19340;HTU21D;9804;52.350;6.684;2023-07-31T01:06:56;18.34;118.99
19340;HTU21D;9804;52.350;6.684;2023-07-31T01:09:37;18.39;118.99
19340;HTU21D;9804;52.350;6.684;2023-07-31T01:12:07;18.36;118.99
19340;HTU21D;9804;52.350;6.684;2023-07-31T01:14:33;18.40;118.99
19340;HTU21D;9804;52.350;6.684;2023-07-31T01:16:58;18.24;118.99
19340;HTU21D;9804;52.350;6.684;2023-07-31T01:19:25;18.52;118.99
19340;HTU21D;9804;52.350;6.684;2023-07-31T01:27:44;18.41;118.99
19340;HTU21D;9804;52.350;6.684;2023-07-31T01:30:16;18.40;118.99
19340;HTU21D;9804;52.350;6.684;2023-07-31T01:32:43;18.65;118.99
19340;HTU21D;9804;52.350;6.684;2023-07-31T01:35:10;18.42;118.99
19340;HTU21D;9804;52.350;6.684;2023-07-31T01:37:36;18.53;118.99
19340;HTU21D;9804;52.350;6.684;2023-07-31T01:40:01;18.47;118.99
19340;HTU21D;9804;52.350;6.684;2023-07-31T01:42:27;18.39;118.99
19340;HTU21D;9804;52.350;6.684;2023-07-31T01:44:52;18.40;118.99
19340;HTU21D;9804;52.350;6.684;2023-07-31T01:47:18;18.47;118.99
19340;HTU21D;9804;52.350;6.684;2023-07-31T01:49:43;18.50;118.99
19340;HTU21D;9804;52.350;6.684;2023-07-31T01:52:08;18.49;118.99
19340;HTU21D;9804;52.350;6.684;2023-07-31T01:54:34;18.37;118.99
19340;HTU21D;9804;52.350;6.684;2023-07-31T01:56:59;18.42;118.99
19340;HTU21D;9804;52.350;6.684;2023-07-31T01:59:24;18.36;118.99
19340;HTU21D;9804;52.350;6.684;2023-07-31T02:01:50;18.41;118.99
19340;HTU21D;9804;52.350;6.684;2023-07-31T02:04:15;18.40;118.99
19340;HTU21D;9804;52.350;6.684;2023-07-31T02:06:41;18.28;118.99
19340;HTU21D;9804;52.350;6.684;2023-07-31T02:09:06;18.25;118.99
19340;HTU21D;9804;52.350;6.684;2023-07-31T02:11:31;18.37;118.99
19340;HTU21D;9804;52.350;6.684;2023-07-31T02:13:57;18.34;118.99
19340;HTU21D;9804;52.350;6.684;2023-07-31T02:16:22;18.52;118.99
19340;HTU21D;9804;52.350;6.684;2023-07-31T02:18:47;18.51;118.99
19340;HTU21D;9804;52.350;6.684;2023-07-31T02:21:13;18.59;118.99
19340;HTU21D;9804;52.350;6.684;2023-07-31T02:23:38;18.64;118.99
19340;HTU21D;9804;52.350;6.684;2023-07-31T02:26:03;18.52;118.99
19340;HTU21D;9804;52.350;6.684;2023-07-31T02:28:29;18.70;118.99
19340;HTU21D;9804;52.350;6.684;2023-07-31T02:30:54;18.62;118.99
19340;HTU21D;9804;52.350;6.684;2023-07-31T02:33:20;18.54;118.99
19340;HTU21D;9804;52.350;6.684;2023-07-31T02:35:45;18.59;118.99
19340;HTU21D;9804;52.350;6.684;2023-07-31T02:38:11;18.77;118.99
19340;HTU21D;9804;52.350;6.684;2023-07-31T02:40:36;18.79;118.99
19340;HTU21D;9804;52.350;6.684;2023-07-31T02:43:01;18.71;118.99
19340;HTU21D;9804;52.350;6.684;2023-07-31T02:45:27;18.70;118.99
19340;HTU21D;9804;52.350;6.684;2023-07-31T02:47:52;18.68;118.99
19340;HTU21D;9804;52.350;6.684;2023-07-31T02:50:18;18.71;118.99
19340;HTU21D;9804;52.350;6.684;2023-07-31T02:52:43;18.70;118.99
19340;HTU21D;9804;52.350;6.684;2023-07-31T02:55:08;18.67;118.99
19340;HTU21D;9804;52.350;6.684;2023-07-31T02:57:34;18.58;118.99
19340;HTU21D;9804;52.350;6.684;2023-07-31T02:59:59;18.68;118.99
19340;HTU21D;9804;52.350;6.684;2023-07-31T03:02:24;18.56;118.99
19340;HTU21D;9804;52.350;6.684;2023-07-31T03:04:50;18.66;118.99
19340;HTU21D;9804;52.350;6.684;2023-07-31T03:07:15;18.71;118.99
19340;HTU21D;9804;52.350;6.684;2023-07-31T03:09:41;18.62;118.99
19340;HTU21D;9804;52.350;6.684;2023-07-31T03:12:07;18.76;118.99
19340;HTU21D;9804;52.350;6.684;2023-07-31T03:14:33;18.62;118.99
19340;HTU21D;9804;52.350;6.684;2023-07-31T03:16:59;18.53;118.99
19340;HTU21D;9804;52.350;6.684;2023-07-31T03:19:24;18.72;118.99
19340;HTU21D;9804;52.350;6.684;2023-07-31T03:21:50;18.63;118.99
19340;HTU21D;9804;52.350;6.684;2023-07-31T03:24:15;18.54;118.99
19340;HTU21D;9804;52.350;6.684;2023-07-31T03:26:40;18.73;118.99
19340;HTU21D;9804;52.350;6.684;2023-07-31T03:29:07;18.80;118.99
19340;HTU21D;9804;52.350;6.684;2023-07-31T03:31:33;18.74;118.99
19340;HTU21D;9804;52.350;6.684;2023-07-31T03:33:58;18.78;118.99
19340;HTU21D;9804;52.350;6.684;2023-07-31T03:36:24;18.66;118.99
19340;HTU21D;9804;52.350;6.684;2023-07-31T03:38:50;18.83;118.99
19340;HTU21D;9804;52.350;6.684;2023-07-31T03:41:16;18.83;118.99
19340;HTU21D;9804;52.350;6.684;2023-07-31T03:43:41;18.94;118.99
19340;HTU21D;9804;52.350;6.684;2023-07-31T03:46:06;18.86;118.99
19340;HTU21D;9804;52.350;6.684;2023-07-31T03:48:32;18.91;118.99
19340;HTU21D;9804;52.350;6.684;2023-07-31T03:50:57;18.94;118.99
19340;HTU21D;9804;52.350;6.684;2023-07-31T03:53:22;18.83;118.99
19340;HTU21D;9804;52.350;6.684;2023-07-31T03:55:48;18.85;118.99
19340;HTU21D;9804;52.350;6.684;2023-07-31T03:58:13;18.98;118.99
19340;HTU21D;9804;52.350;6.684;2023-07-31T04:00:40;18.97;118.99
19340;HTU21D;9804;52.350;6.684;2023-07-31T04:03:05;18.96;118.99
19340;HTU21D;9804;52.350;6.684;2023-07-31T04:05:32;18.88;118.99
19340;HTU21D;9804;52.350;6.684;2023-07-31T04:07:58;19.01;118.99
19340;HTU21D;9804;52.350;6.684;2023-07-31T04:10:23;18.98;118.99
19340;HTU21D;9804;52.350;6.684;2023-07-31T04:12:49;18.98;118.99
19340;HTU21D;9804;52.350;6.684;2023-07-31T04:15:14;18.99;118.99
19340;HTU21D;9804;52.350;6.684;2023-07-31T04:17:39;18.98;118.99
19340;HTU21D;9804;52.350;6.684;2023-07-31T04:20:05;19.03;118.99
19340;HTU21D;9804;52.350;6.684;2023-07-31T04:22:31;19.07;118.99
19340;HTU21D;9804;52.350;6.684;2023-07-31T04:24:56;19.08;118.99
19340;HTU21D;9804;52.350;6.684;2023-07-31T04:27:22;19.18;118.99
19340;HTU21D;9804;52.350;6.684;2023-07-31T04:29:47;19.08;118.99
19340;HTU21D;9804;52.350;6.684;2023-07-31T04:32:12;19.08;118.99
19340;HTU21D;9804;52.350;6.684;2023-07-31T04:34:38;19.15;118.99
19340;HTU21D;9804;52.350;6.684;2023-07-31T04:37:03;18.98;118.99
19340;HTU21D;9804;52.350;6.684;2023-07-31T04:39:29;19.14;118.99
19340;HTU21D;9804;52.350;6.684;2023-07-31T04:41:54;19.17;118.99
19340;HTU21D;9804;52.350;6.684;2023-07-31T04:44:19;18.96;118.99
19340;HTU21D;9804;52.350;6.684;2023-07-31T04:46:45;19.17;118.99
19340;HTU21D;9804;52.350;6.684;2023-07-31T04:49:11;19.10;118.99
19340;HTU21D;9804;52.350;6.684;2023-07-31T04:51:36;19.20;118.99
19340;HTU21D;9804;52.350;6.684;2023-07-31T04:54:02;19.17;118.99
19340;HTU21D;9804;52.350;6.684;2023-07-31T04:56:27;19.14;118.99
19340;HTU21D;9804;52.350;6.684;2023-07-31T04:58:52;19.11;118.99
19340;HTU21D;9804;52.350;6.684;2023-07-31T05:01:18;18.93;118.99
19340;HTU21D;9804;52.350;6.684;2023-07-31T05:03:43;18.93;118.99
19340;HTU21D;9804;52.350;6.684;2023-07-31T05:06:09;18.91;118.99
19340;HTU21D;9804;52.350;6.684;2023-07-31T05:08:34;19.06;118.99
19340;HTU21D;9804;52.350;6.684;2023-07-31T05:10:59;18.99;118.99
19340;HTU21D;9804;52.350;6.684;2023-07-31T05:13:25;19.11;118.99
19340;HTU21D;9804;52.350;6.684;2023-07-31T05:15:50;19.08;118.99
19340;HTU21D;9804;52.350;6.684;2023-07-31T05:18:15;18.96;118.99
19340;HTU21D;9804;52.350;6.684;2023-07-31T05:20:41;18.93;118.99
19340;HTU21D;9804;52.350;6.684;2023-07-31T05:23:06;19.05;118.99
19340;HTU21D;9804;52.350;6.684;2023-07-31T05:25:32;19.10;118.99
19340;HTU21D;9804;52.350;6.684;2023-07-31T05:27:57;19.05;118.99
19340;HTU21D;9804;52.350;6.684;2023-07-31T05:30:22;19.10;118.99
19340;HTU21D;9804;52.350;6.684;2023-07-31T05:32:48;19.16;118.99
19340;HTU21D;9804;52.350;6.684;2023-07-31T05:35:13;19.14;118.99
19340;HTU21D;9804;52.350;6.684;2023-07-31T05:37:39;19.18;118.99
19340;HTU21D;9804;52.350;6.684;2023-07-31T05:40:04;19.07;118.99
19340;HTU21D;9804;52.350;6.684;2023-07-31T05:42:30;19.13;118.99
19340;HTU21D;9804;52.350;6.684;2023-07-31T05:44:55;19.08;118.99
19340;HTU21D;9804;52.350;6.684;2023-07-31T05:47:21;19.27;118.99
19340;HTU21D;9804;52.350;6.684;2023-07-31T05:49:46;19.33;118.99
19340;HTU21D;9804;52.350;6.684;2023-07-31T05:52:11;19.23;118.99
19340;HTU21D;9804;52.350;6.684;2023-07-31T05:54:37;19.30;118.99
19340;HTU21D;9804;52.350;6.684;2023-07-31T05:57:02;19.22;118.99
19340;HTU21D;9804;52.350;6.684;2023-07-31T05:59:28;19.14;118.99
19340;HTU21D;9804;52.350;6.684;2023-07-31T06:01:53;19.15;118.99
19340;HTU21D;9804;52.350;6.684;2023-07-31T06:04:18;19.38;118.99
19340;HTU21D;9804;52.350;6.684;2023-07-31T06:06:44;19.41;118.99
19340;HTU21D;9804;52.350;6.684;2023-07-31T06:09:09;19.52;118.99
19340;HTU21D;9804;52.350;6.684;2023-07-31T06:11:35;19.41;118.99
19340;HTU21D;9804;52.350;6.684;2023-07-31T06:14:00;19.55;118.99
19340;HTU21D;9804;52.350;6.684;2023-07-31T06:16:25;19.50;118.99
19340;HTU21D;9804;52.350;6.684;2023-07-31T06:18:52;19.41;118.99
19340;HTU21D;9804;52.350;6.684;2023-07-31T06:21:17;19.36;118.99
19340;HTU21D;9804;52.350;6.684;2023-07-31T06:23:43;19.32;118.99
19340;HTU21D;9804;52.350;6.684;2023-07-31T06:26:08;19.36;118.99
19340;HTU21D;9804;52.350;6.684;2023-07-31T06:28:34;19.16;118.99
19340;HTU21D;9804;52.350;6.684;2023-07-31T06:31:00;19.09;118.99
19340;HTU21D;9804;52.350;6.684;2023-07-31T06:33:27;18.89;118.99
19340;HTU21D;9804;52.350;6.684;2023-07-31T06:35:52;19.05;118.99
19340;HTU21D;9804;52.350;6.684;2023-07-31T06:38:22;19.11;118.99
19340;HTU21D;9804;52.350;6.684;2023-07-31T06:40:48;19.12;118.99
19340;HTU21D;9804;52.350;6.684;2023-07-31T06:43:14;19.16;118.99
19340;HTU21D;9804;52.350;6.684;2023-07-31T06:45:39;19.03;118.99
19340;HTU21D;9804;52.350;6.684;2023-07-31T06:48:05;19.10;118.99
19340;HTU21D;9804;52.350;6.684;2023-07-31T06:50:31;19.02;118.99
19340;HTU21D;9804;52.350;6.684;2023-07-31T06:52:57;19.12;118.99
19340;HTU21D;9804;52.350;6.684;2023-07-31T06:55:22;18.98;118.99
19340;HTU21D;9804;52.350;6.684;2023-07-31T06:57:49;19.11;118.99
19340;HTU21D;9804;52.350;6.684;2023-07-31T07:00:16;19.15;118.99
19340;HTU21D;9804;52.350;6.684;2023-07-31T07:02:41;19.00;118.99
19340;HTU21D;9804;52.350;6.684;2023-07-31T07:05:07;19.29;118.99
19340;HTU21D;9804;52.350;6.684;2023-07-31T07:07:33;19.45;118.99
19340;HTU21D;9804;52.350;6.684;2023-07-31T07:09:59;19.33;118.99
19340;HTU21D;9804;52.350;6.684;2023-07-31T07:12:30;19.39;118.99
19340;HTU21D;9804;52.350;6.684;2023-07-31T07:14:55;19.61;118.99
19340;HTU21D;9804;52.350;6.684;2023-07-31T07:17:22;19.54;118.99
19340;HTU21D;9804;52.350;6.684;2023-07-31T07:19:48;19.41;118.99
19340;HTU21D;9804;52.350;6.684;2023-07-31T07:22:13;19.65;118.99
19340;HTU21D;9804;52.350;6.684;2023-07-31T07:24:39;19.59;118.99
19340;HTU21D;9804;52.350;6.684;2023-07-31T07:27:05;19.58;118.99
19340;HTU21D;9804;52.350;6.684;2023-07-31T07:29:30;19.58;118.99
19340;HTU21D;9804;52.350;6.684;2023-07-31T07:31:55;19.51;118.99
19340;HTU21D;9804;52.350;6.684;2023-07-31T07:34:26;19.60;118.99
19340;HTU21D;9804;52.350;6.684;2023-07-31T07:36:52;19.79;118.99
19340;HTU21D;9804;52.350;6.684;2023-07-31T07:39:17;19.82;118.99
19340;HTU21D;9804;52.350;6.684;2023-07-31T07:41:43;19.71;118.99
19340;HTU21D;9804;52.350;6.684;2023-07-31T07:44:08;19.79;118.99
19340;HTU21D;9804;52.350;6.684;2023-07-31T07:46:34;19.88;118.99
19340;HTU21D;9804;52.350;6.684;2023-07-31T07:48:59;19.70;118.99
19340;HTU21D;9804;52.350;6.684;2023-07-31T07:51:24;19.74;118.99
19340;HTU21D;9804;52.350;6.684;2023-07-31T07:53:50;19.99;118.99
19340;HTU21D;9804;52.350;6.684;2023-07-31T07:56:15;19.97;118.99
19340;HTU21D;9804;52.350;6.684;2023-07-31T07:58:41;20.06;118.99
19340;HTU21D;9804;52.350;6.684;2023-07-31T08:01:06;19.94;118.99
19340;HTU21D;9804;52.350;6.684;2023-07-31T08:03:32;20.14;118.99
19340;HTU21D;9804;52.350;6.684;2023-07-31T08:06:01;20.30;118.99
19340;HTU21D;9804;52.350;6.684;2023-07-31T08:08:27;20.26;118.99
19340;HTU21D;9804;52.350;6.684;2023-07-31T08:10:53;20.22;118.99
19340;HTU21D;9804;52.350;6.684;2023-07-31T08:13:18;20.13;118.99
19340;HTU21D;9804;52.350;6.684;2023-07-31T08:15:44;20.26;118.99
19340;HTU21D;9804;52.350;6.684;2023-07-31T08:18:10;20.00;118.99
19340;HTU21D;9804;52.350;6.684;2023-07-31T08:20:37;20.15;118.99
19340;HTU21D;9804;52.350;6.684;2023-07-31T08:23:02;20.31;118.99
19340;HTU21D;9804;52.350;6.684;2023-07-31T08:25:28;20.24;118.99
19340;HTU21D;9804;52.350;6.684;2023-07-31T08:27:53;20.20;118.99
19340;HTU21D;9804;52.350;6.684;2023-07-31T08:30:19;20.27;118.99
19340;HTU21D;9804;52.350;6.684;2023-07-31T08:32:44;20.18;118.99
19340;HTU21D;9804;52.350;6.684;2023-07-31T08:35:10;20.29;118.99
19340;HTU21D;9804;52.350;6.684;2023-07-31T08:37:36;20.28;118.99
19340;HTU21D;9804;52.350;6.684;2023-07-31T08:40:01;20.34;118.99
19340;HTU21D;9804;52.350;6.684;2023-07-31T08:42:27;20.24;118.99
19340;HTU21D;9804;52.350;6.684;2023-07-31T08:44:53;20.12;118.99
19340;HTU21D;9804;52.350;6.684;2023-07-31T08:47:21;20.13;118.99
19340;HTU21D;9804;52.350;6.684;2023-07-31T08:49:47;20.42;118.99
19340;HTU21D;9804;52.350;6.684;2023-07-31T08:52:13;20.25;118.99
19340;HTU21D;9804;52.350;6.684;2023-07-31T08:54:39;20.44;118.99
19340;HTU21D;9804;52.350;6.684;2023-07-31T08:57:05;20.55;118.99
19340;HTU21D;9804;52.350;6.684;2023-07-31T08:59:31;20.36;118.99
19340;HTU21D;9804;52.350;6.684;2023-07-31T09:02:05;20.44;118.99
19340;HTU21D;9804;52.350;6.684;2023-07-31T09:04:31;20.28;118.99
19340;HTU21D;9804;52.350;6.684;2023-07-31T09:07:00;20.33;118.99
19340;HTU21D;9804;52.350;6.684;2023-07-31T09:09:26;20.47;118.99
19340;HTU21D;9804;52.350;6.684;2023-07-31T09:11:52;20.43;118.99
19340;HTU21D;9804;52.350;6.684;2023-07-31T09:14:18;20.47;118.99
19340;HTU21D;9804;52.350;6.684;2023-07-31T09:16:58;20.40;118.99
19340;HTU21D;9804;52.350;6.684;2023-07-31T09:19:35;20.42;118.99
19340;HTU21D;9804;52.350;6.684;2023-07-31T09:22:05;20.40;118.99
19340;HTU21D;9804;52.350;6.684;2023-07-31T09:24:33;20.42;118.99
19340;HTU21D;9804;52.350;6.684;2023-07-31T09:27:00;20.42;118.99
19340;HTU21D;9804;52.350;6.684;2023-07-31T09:29:28;20.49;118.99
19340;HTU21D;9804;52.350;6.684;2023-07-31T09:31:54;20.75;118.99
19340;HTU21D;9804;52.350;6.684;2023-07-31T09:34:20;20.59;118.99
19340;HTU21D;9804;52.350;6.684;2023-07-31T09:36:52;20.66;118.99
19340;HTU21D;9804;52.350;6.684;2023-07-31T09:39:19;20.64;118.99
19340;HTU21D;9804;52.350;6.684;2023-07-31T09:41:54;20.63;118.99
19340;HTU21D;9804;52.350;6.684;2023-07-31T09:44:20;20.70;118.99
19340;HTU21D;9804;52.350;6.684;2023-07-31T09:46:45;20.81;118.99
19340;HTU21D;9804;52.350;6.684;2023-07-31T09:49:12;20.96;118.99
19340;HTU21D;9804;52.350;6.684;2023-07-31T09:51:39;20.73;118.99
19340;HTU21D;9804;52.350;6.684;2023-07-31T09:54:16;20.83;118.99
19340;HTU21D;9804;52.350;6.684;2023-07-31T09:56:46;20.93;118.99
19340;HTU21D;9804;52.350;6.684;2023-07-31T09:59:14;21.00;118.99
19340;HTU21D;9804;52.350;6.684;2023-07-31T10:01:41;21.06;118.99
19340;HTU21D;9804;52.350;6.684;2023-07-31T10:04:08;21.04;118.99
19340;HTU21D;9804;52.350;6.684;2023-07-31T10:06:36;20.98;118.99
19340;HTU21D;9804;52.350;6.684;2023-07-31T10:09:09;21.22;118.99
19340;HTU21D;9804;52.350;6.684;2023-07-31T10:11:47;20.96;118.99
19340;HTU21D;9804;52.350;6.684;2023-07-31T10:14:21;21.13;118.99
19340;HTU21D;9804;52.350;6.684;2023-07-31T10:16:47;21.21;118.99
19340;HTU21D;9804;52.350;6.684;2023-07-31T10:19:12;21.00;118.99
19340;HTU21D;9804;52.350;6.684;2023-07-31T10:21:38;21.34;118.99
19340;HTU21D;9804;52.350;6.684;2023-07-31T10:24:04;21.34;118.99
19340;HTU21D;9804;52.350;6.684;2023-07-31T10:26:31;21.39;118.99
19340;HTU21D;9804;52.350;6.684;2023-07-31T10:28:57;21.37;118.99
19340;HTU21D;9804;52.350;6.684;2023-07-31T10:31:23;21.23;118.99
19340;HTU21D;9804;52.350;6.684;2023-07-31T10:33:50;21.55;118.99
19340;HTU21D;9804;52.350;6.684;2023-07-31T10:36:20;21.35;118.99
19340;HTU21D;9804;52.350;6.684;2023-07-31T10:38:48;21.45;118.99
19340;HTU21D;9804;52.350;6.684;2023-07-31T10:41:14;21.37;118.99
19340;HTU21D;9804;52.350;6.684;2023-07-31T10:43:40;21.33;118.99
19340;HTU21D;9804;52.350;6.684;2023-07-31T10:46:11;21.17;118.99
19340;HTU21D;9804;52.350;6.684;2023-07-31T10:48:40;21.46;118.99
19340;HTU21D;9804;52.350;6.684;2023-07-31T10:51:11;21.38;118.99
19340;HTU21D;9804;52.350;6.684;2023-07-31T10:53:42;21.29;118.99
19340;HTU21D;9804;52.350;6.684;2023-07-31T10:56:09;21.62;118.99
19340;HTU21D;9804;52.350;6.684;2023-07-31T10:58:36;21.85;118.99
19340;HTU21D;9804;52.350;6.684;2023-07-31T11:01:04;21.37;118.99
19340;HTU21D;9804;52.350;6.684;2023-07-31T11:03:49;21.46;118.99
19340;HTU21D;9804;52.350;6.684;2023-07-31T11:06:17;21.32;118.99
19340;HTU21D;9804;52.350;6.684;2023-07-31T11:08:45;21.38;118.99
19340;HTU21D;9804;52.350;6.684;2023-07-31T11:11:14;21.58;118.99
19340;HTU21D;9804;52.350;6.684;2023-07-31T11:13:50;21.59;118.99
19340;HTU21D;9804;52.350;6.684;2023-07-31T11:16:18;21.30;118.99
19340;HTU21D;9804;52.350;6.684;2023-07-31T11:18:45;21.31;118.99
19340;HTU21D;9804;52.350;6.684;2023-07-31T11:21:16;21.37;118.99
19340;HTU21D;9804;52.350;6.684;2023-07-31T11:23:46;21.40;118.99
19340;HTU21D;9804;52.350;6.684;2023-07-31T11:26:12;21.63;118.99
19340;HTU21D;9804;52.350;6.684;2023-07-31T11:28:37;21.23;118.99
19340;HTU21D;9804;52.350;6.684;2023-07-31T11:31:03;21.50;118.99
19340;HTU21D;9804;52.350;6.684;2023-07-31T11:33:29;21.37;118.99
19340;HTU21D;9804;52.350;6.684;2023-07-31T11:35:55;21.57;118.99
19340;HTU21D;9804;52.350;6.684;2023-07-31T11:40:49;21.28;118.99
19340;HTU21D;9804;52.350;6.684;2023-07-31T11:43:15;21.31;118.99
19340;HTU21D;9804;52.350;6.684;2023-07-31T11:45:48;21.44;118.99
19340;HTU21D;9804;52.350;6.684;2023-07-31T11:48:28;21.63;118.99
19340;HTU21D;9804;52.350;6.684;2023-07-31T11:50:57;21.54;118.99
19340;HTU21D;9804;52.350;6.684;2023-07-31T11:53:28;21.52;118.99
19340;HTU21D;9804;52.350;6.684;2023-07-31T11:56:00;21.44;118.99
19340;HTU21D;9804;52.350;6.684;2023-07-31T11:58:26;21.32;118.99
19340;HTU21D;9804;52.350;6.684;2023-07-31T12:00:52;21.21;118.99
19340;HTU21D;9804;52.350;6.684;2023-07-31T12:03:18;21.69;118.99
19340;HTU21D;9804;52.350;6.684;2023-07-31T12:05:43;21.75;118.99
19340;HTU21D;9804;52.350;6.684;2023-07-31T12:08:10;21.51;118.99
19340;HTU21D;9804;52.350;6.684;2023-07-31T12:10:39;21.68;118.99
19340;HTU21D;9804;52.350;6.684;2023-07-31T12:13:09;21.67;118.99
19340;HTU21D;9804;52.350;6.684;2023-07-31T12:15:45;21.50;118.99
19340;HTU21D;9804;52.350;6.684;2023-07-31T12:18:13;21.65;118.99
19340;HTU21D;9804;52.350;6.684;2023-07-31T12:20:43;21.80;118.99
19340;HTU21D;9804;52.350;6.684;2023-07-31T12:23:21;21.92;118.99
19340;HTU21D;9804;52.350;6.684;2023-07-31T12:28:25;22.18;118.99
19340;HTU21D;9804;52.350;6.684;2023-07-31T12:30:51;22.38;118.99
19340;HTU21D;9804;52.350;6.684;2023-07-31T12:33:18;22.35;118.99
19340;HTU21D;9804;52.350;6.684;2023-07-31T12:35:46;22.08;118.99
19340;HTU21D;9804;52.350;6.684;2023-07-31T12:38:12;21.81;118.99
19340;HTU21D;9804;52.350;6.684;2023-07-31T12:40:39;21.78;118.99
19340;HTU21D;9804;52.350;6.684;2023-07-31T12:43:05;21.97;118.99
19340;HTU21D;9804;52.350;6.684;2023-07-31T12:45:31;22.01;118.99
19340;HTU21D;9804;52.350;6.684;2023-07-31T12:47:57;22.04;118.99
19340;HTU21D;9804;52.350;6.684;2023-07-31T12:50:23;21.91;118.99
19340;HTU21D;9804;52.350;6.684;2023-07-31T12:52:49;21.91;118.99
19340;HTU21D;9804;52.350;6.684;2023-07-31T12:55:14;21.60;118.99
19340;HTU21D;9804;52.350;6.684;2023-07-31T12:57:40;21.45;118.99
19340;HTU21D;9804;52.350;6.684;2023-07-31T13:00:07;21.54;118.99
19340;HTU21D;9804;52.350;6.684;2023-07-31T13:02:33;21.68;118.99
19340;HTU21D;9804;52.350;6.684;2023-07-31T13:04:58;21.79;118.99
19340;HTU21D;9804;52.350;6.684;2023-07-31T13:07:23;21.85;118.99
19340;HTU21D;9804;52.350;6.684;2023-07-31T13:09:49;21.88;118.99
19340;HTU21D;9804;52.350;6.684;2023-07-31T13:12:14;21.75;118.99
19340;HTU21D;9804;52.350;6.684;2023-07-31T13:14:39;21.68;118.99
19340;HTU21D;9804;52.350;6.684;2023-07-31T13:17:05;21.50;118.99
19340;HTU21D;9804;52.350;6.684;2023-07-31T13:19:30;21.53;118.99
19340;HTU21D;9804;52.350;6.684;2023-07-31T13:21:56;21.46;118.99
19340;HTU21D;9804;52.350;6.684;2023-07-31T13:24:21;21.66;118.99
19340;HTU21D;9804;52.350;6.684;2023-07-31T13:26:46;21.74;118.99
19340;HTU21D;9804;52.350;6.684;2023-07-31T13:29:12;21.85;118.99
19340;HTU21D;9804;52.350;6.684;2023-07-31T13:31:37;22.03;118.99
19340;HTU21D;9804;52.350;6.684;2023-07-31T13:34:02;21.94;118.99
19340;HTU21D;9804;52.350;6.684;2023-07-31T13:36:28;22.19;118.99
19340;HTU21D;9804;52.350;6.684;2023-07-31T13:38:53;22.07;118.99
19340;HTU21D;9804;52.350;6.684;2023-07-31T13:41:19;22.04;118.99
19340;HTU21D;9804;52.350;6.684;2023-07-31T13:43:44;21.96;118.99
19340;HTU21D;9804;52.350;6.684;2023-07-31T13:46:09;21.83;118.99
19340;HTU21D;9804;52.350;6.684;2023-07-31T13:48:36;21.78;118.99
19340;HTU21D;9804;52.350;6.684;2023-07-31T13:51:01;21.90;118.99
19340;HTU21D;9804;52.350;6.684;2023-07-31T13:53:27;21.85;118.99
19340;HTU21D;9804;52.350;6.684;2023-07-31T13:55:52;21.81;118.99
19340;HTU21D;9804;52.350;6.684;2023-07-31T13:58:18;21.49;118.99
19340;HTU21D;9804;52.350;6.684;2023-07-31T14:00:43;21.66;118.99
19340;HTU21D;9804;52.350;6.684;2023-07-31T14:03:08;21.66;118.99
19340;HTU21D;9804;52.350;6.684;2023-07-31T14:05:35;21.72;118.99
19340;HTU21D;9804;52.350;6.684;2023-07-31T14:08:00;21.84;118.99
19340;HTU21D;9804;52.350;6.684;2023-07-31T14:10:26;21.88;118.99
19340;HTU21D;9804;52.350;6.684;2023-07-31T14:12:51;21.83;118.99
19340;HTU21D;9804;52.350;6.684;2023-07-31T14:15:16;21.94;118.99
19340;HTU21D;9804;52.350;6.684;2023-07-31T14:17:42;22.02;118.99
19340;HTU21D;9804;52.350;6.684;2023-07-31T14:20:07;21.95;118.99
19340;HTU21D;9804;52.350;6.684;2023-07-31T14:22:33;22.11;118.99
19340;HTU21D;9804;52.350;6.684;2023-07-31T14:24:59;22.21;118.99
19340;HTU21D;9804;52.350;6.684;2023-07-31T14:27:25;22.19;118.99
19340;HTU21D;9804;52.350;6.684;2023-07-31T14:29:50;22.11;118.99
19340;HTU21D;9804;52.350;6.684;2023-07-31T14:32:16;22.20;118.99
19340;HTU21D;9804;52.350;6.684;2023-07-31T14:34:41;22.17;118.99
19340;HTU21D;9804;52.350;6.684;2023-07-31T14:37:07;22.38;118.99
19340;HTU21D;9804;52.350;6.684;2023-07-31T14:39:32;22.13;118.99
19340;HTU21D;9804;52.350;6.684;2023-07-31T14:41:57;22.25;118.99
19340;HTU21D;9804;52.350;6.684;2023-07-31T14:44:23;22.26;118.99
19340;HTU21D;9804;52.350;6.684;2023-07-31T14:46:48;22.28;118.99
19340;HTU21D;9804;52.350;6.684;2023-07-31T14:49:14;22.44;118.99
19340;HTU21D;9804;52.350;6.684;2023-07-31T14:51:39;22.29;118.99
19340;HTU21D;9804;52.350;6.684;2023-07-31T14:54:05;22.19;118.99
19340;HTU21D;9804;52.350;6.684;2023-07-31T14:56:30;22.46;118.99
19340;HTU21D;9804;52.350;6.684;2023-07-31T14:58:55;22.36;118.99
19340;HTU21D;9804;52.350;6.684;2023-07-31T15:01:21;22.18;118.99
19340;HTU21D;9804;52.350;6.684;2023-07-31T15:03:46;21.92;118.99
19340;HTU21D;9804;52.350;6.684;2023-07-31T15:06:12;21.99;118.99
19340;HTU21D;9804;52.350;6.684;2023-07-31T15:08:38;21.78;118.99
19340;HTU21D;9804;52.350;6.684;2023-07-31T15:11:03;21.96;118.99
19340;HTU21D;9804;52.350;6.684;2023-07-31T15:13:29;21.82;118.99
19340;HTU21D;9804;52.350;6.684;2023-07-31T15:15:54;21.76;118.99
19340;HTU21D;9804;52.350;6.684;2023-07-31T15:18:21;21.50;118.99
19340;HTU21D;9804;52.350;6.684;2023-07-31T15:20:46;21.47;118.99